createdAt,value
2019-02-12T00:03:26.921Z,4.50
2019-02-12T00:08:32.317Z,4.10
2019-02-12T00:13:37.768Z,4.07
2019-02-12T00:18:43.163Z,4.33
2019-02-12T00:23:48.586Z,3.83
2019-02-12T00:28:53.977Z,3.93
2019-02-12T00:33:59.360Z,3.97
2019-02-12T00:39:06.193Z,4.03
2019-02-12T00:44:12.878Z,4.00
2019-02-12T00:49:18.276Z,3.70
2019-02-12T00:54:24.250Z,3.77
2019-02-12T00:59:29.721Z,3.40
2019-02-12T01:04:35.114Z,3.90
2019-02-12T01:09:40.570Z,3.40
2019-02-12T01:14:45.959Z,4.10
2019-02-12T01:19:51.356Z,3.30
2019-02-12T01:24:56.765Z,3.70
2019-02-12T01:30:02.140Z,3.20
2019-02-12T01:35:08.611Z,3.30
2019-02-12T01:40:14.336Z,3.03
2019-02-12T01:45:20.801Z,3.30
2019-02-12T01:50:26.186Z,3.10
2019-02-12T01:55:31.581Z,3.10
2019-02-12T02:00:37.441Z,3.10
2019-02-12T02:05:42.822Z,3.00
2019-02-12T02:10:48.568Z,3.47
2019-02-12T02:15:53.956Z,2.90
2019-02-12T02:20:59.434Z,2.73
2019-02-12T02:26:04.868Z,2.50
2019-02-12T02:31:10.248Z,3.10
2019-02-12T02:36:15.636Z,2.83
2019-02-12T02:41:21.052Z,2.80
2019-02-12T02:46:26.566Z,2.70
2019-02-12T02:51:32.265Z,2.60
2019-02-12T02:56:37.655Z,2.57
2019-02-12T03:01:44.020Z,2.40
2019-02-12T03:06:49.404Z,2.67
2019-02-12T03:11:54.804Z,2.50
2019-02-12T03:17:02.584Z,2.37
2019-02-12T03:22:07.962Z,2.63
2019-02-12T03:27:13.353Z,2.70
2019-02-12T03:32:18.746Z,2.40
2019-02-12T03:37:24.139Z,2.20
2019-02-12T03:42:29.593Z,2.47
2019-02-12T03:47:35.011Z,2.43
2019-02-12T03:52:40.419Z,2.30
2019-02-12T03:57:45.789Z,2.00
2019-02-12T04:03:01.650Z,2.30
2019-02-12T04:08:07.259Z,2.27
2019-02-12T04:13:12.651Z,1.90
2019-02-12T04:18:18.033Z,2.33
2019-02-12T04:23:23.414Z,2.57
2019-02-12T04:28:28.840Z,2.53
2019-02-12T04:33:34.511Z,2.20
2019-02-12T04:38:39.904Z,2.27
2019-02-12T04:43:45.396Z,2.40
2019-02-12T04:48:50.776Z,2.23
2019-02-12T04:53:56.163Z,2.07
2019-02-12T04:59:01.613Z,1.87
2019-02-12T05:04:06.935Z,1.90
2019-02-12T05:09:19.423Z,1.80
2019-02-12T05:14:24.824Z,1.80
2019-02-12T05:19:30.221Z,2.07
2019-02-12T05:24:35.610Z,2.07
2019-02-12T05:29:41.012Z,1.70
2019-02-12T05:34:46.376Z,1.83
2019-02-12T05:39:51.761Z,1.90
2019-02-12T05:44:57.154Z,1.83
2019-02-12T05:50:02.603Z,1.60
2019-02-12T05:55:08.055Z,1.87
2019-02-12T06:00:21.084Z,1.43
2019-02-12T06:05:29.548Z,1.73
2019-02-12T06:10:35.929Z,1.73
2019-02-12T06:15:41.321Z,1.60
2019-02-12T06:20:46.871Z,1.70
2019-02-12T06:25:52.255Z,1.50
2019-02-12T06:30:58.073Z,1.83
2019-02-12T06:36:03.523Z,1.87
2019-02-12T06:41:08.960Z,1.80
2019-02-12T06:46:16.019Z,1.70
2019-02-12T06:51:21.404Z,1.40
2019-02-12T06:56:26.815Z,1.43
2019-02-12T07:01:32.224Z,1.77
2019-02-12T07:07:00.179Z,1.50
2019-02-12T07:12:37.048Z,1.40
2019-02-12T07:18:13.713Z,1.50
2019-02-12T07:23:40.263Z,1.53
2019-02-12T07:29:02.508Z,1.47
2019-02-12T07:34:29.112Z,1.50
2019-02-12T07:40:01.700Z,1.60
2019-02-12T07:45:35.731Z,1.80
2019-02-12T07:51:00.565Z,1.23
2019-02-12T07:56:25.010Z,1.60
2019-02-12T08:01:55.725Z,1.67
2019-02-12T08:07:40.473Z,1.53
2019-02-12T08:13:22.150Z,2.20
2019-02-12T08:18:34.971Z,4.57
2019-02-12T08:23:51.967Z,5.90
2019-02-12T08:29:20.075Z,5.90
2019-02-12T08:35:00.618Z,6.53
2019-02-12T08:40:42.572Z,5.87
2019-02-12T08:46:01.388Z,5.20
2019-02-12T08:51:43.191Z,4.33
2019-02-12T08:57:17.409Z,4.03
2019-02-12T09:02:27.675Z,3.77
2019-02-12T09:07:47.928Z,3.80
2019-02-12T09:13:10.213Z,4.03
2019-02-12T09:18:59.351Z,3.70
2019-02-12T09:24:15.065Z,4.00
2019-02-12T09:29:52.163Z,3.60
2019-02-12T09:35:16.501Z,3.33
2019-02-12T09:46:40.362Z,3.67
2019-02-12T09:51:56.138Z,2.77
2019-02-12T09:57:20.380Z,2.97
2019-02-12T10:02:42.491Z,2.70
2019-02-12T10:08:29.231Z,2.40
2019-02-12T10:13:47.875Z,3.10
2019-02-12T10:19:15.224Z,2.80
2019-02-12T10:24:41.590Z,2.43
2019-02-12T10:30:24.433Z,2.47
2019-02-12T10:35:31.704Z,2.63
2019-02-12T10:40:37.341Z,2.40
2019-02-12T10:45:43.346Z,2.50
2019-02-12T10:50:48.870Z,2.23
2019-02-12T10:55:54.388Z,2.20
2019-02-12T11:00:59.926Z,2.43
2019-02-12T11:06:05.823Z,2.17
2019-02-12T11:11:12.133Z,2.10
2019-02-12T11:16:18.297Z,2.10
2019-02-12T11:21:23.684Z,12.87
2019-02-12T11:26:31.288Z,9.83
2019-02-12T11:31:39.883Z,9.13
2019-02-12T11:36:46.882Z,7.93
2019-02-12T11:41:52.347Z,7.70
2019-02-12T11:46:58.199Z,7.30
2019-02-12T11:52:03.636Z,6.33
2019-02-12T11:57:09.023Z,6.17
2019-02-12T12:02:14.420Z,6.57
2019-02-12T12:07:19.808Z,5.47
2019-02-12T12:12:25.201Z,5.30
2019-02-12T12:17:30.601Z,5.77
2019-02-12T12:22:36.072Z,5.23
2019-02-12T12:27:41.544Z,5.50
2019-02-12T12:32:46.940Z,4.70
2019-02-12T12:37:52.326Z,4.67
2019-02-12T12:42:57.970Z,4.53
2019-02-12T12:48:03.429Z,4.57
2019-02-12T12:53:08.952Z,5.07
2019-02-12T12:58:14.366Z,3.97
2019-02-12T13:03:19.784Z,4.00
2019-02-12T13:08:25.169Z,4.03
2019-02-12T13:13:30.622Z,4.00
2019-02-12T13:18:36.010Z,4.10
2019-02-12T13:23:41.452Z,4.37
2019-02-12T13:28:46.862Z,3.37
2019-02-12T13:33:54.182Z,3.97
2019-02-12T13:38:59.584Z,3.70
2019-02-12T13:44:05.033Z,3.33
2019-02-12T13:49:10.415Z,3.43
2019-02-12T13:54:15.864Z,3.17
2019-02-12T13:59:21.259Z,4.13
2019-02-12T14:04:26.651Z,14.53
2019-02-12T14:09:32.048Z,19.53
2019-02-12T14:14:37.517Z,20.17
2019-02-12T14:19:42.936Z,19.07
2019-02-12T14:24:48.386Z,17.77
2019-02-12T14:29:54.097Z,19.03
2019-02-12T14:35:02.561Z,16.37
2019-02-12T14:40:15.545Z,17.77
2019-02-12T14:45:21.234Z,15.80
2019-02-12T14:50:26.705Z,18.30
2019-02-12T14:55:33.861Z,21.23
2019-02-12T15:00:39.393Z,20.23
2019-02-12T15:05:45.607Z,29.10
2019-02-12T15:10:51.070Z,27.27
2019-02-12T15:15:56.464Z,24.07
2019-02-12T15:21:03.506Z,23.10
2019-02-12T15:26:08.979Z,23.67
2019-02-12T15:31:14.487Z,22.73
2019-02-12T15:36:19.962Z,23.10
2019-02-12T15:41:25.470Z,23.20
2019-02-12T15:46:30.944Z,21.73
2019-02-12T15:51:36.383Z,20.13
2019-02-12T15:57:01.528Z,6.07
2019-02-12T16:02:09.684Z,5.17
2019-02-12T16:07:15.859Z,3.90
2019-02-12T16:12:21.659Z,3.73
2019-02-12T16:17:27.240Z,3.83
2019-02-12T16:22:33.078Z,3.80
2019-02-12T16:27:44.484Z,3.93
2019-02-12T16:32:50.071Z,4.50
2019-02-12T16:37:55.578Z,4.50
2019-02-12T16:43:01.126Z,4.30
2019-02-12T16:48:06.561Z,4.20
2019-02-12T16:53:11.949Z,3.90
2019-02-12T16:58:17.400Z,3.70
2019-02-12T17:03:22.785Z,4.13
2019-02-12T17:08:28.176Z,3.53
2019-02-12T17:13:33.587Z,4.10
2019-02-12T17:18:39.068Z,3.90
2019-02-12T17:23:44.485Z,3.50
2019-02-12T17:28:49.893Z,3.87
2019-02-12T17:33:55.261Z,3.73
2019-02-12T17:39:00.664Z,3.63
2019-02-12T17:44:07.677Z,3.50
2019-02-12T17:49:13.948Z,3.37
2019-02-12T17:54:19.328Z,3.63
2019-02-12T17:59:24.787Z,4.07
2019-02-12T18:04:30.361Z,3.57
2019-02-12T18:09:35.759Z,3.33
2019-02-12T18:14:41.155Z,3.97
2019-02-12T18:19:46.622Z,3.63
2019-02-12T18:24:52.019Z,3.73
2019-02-12T18:29:57.445Z,3.50
2019-02-12T18:35:02.897Z,3.27
2019-02-12T18:40:12.388Z,3.57
2019-02-12T18:45:26.394Z,3.43
2019-02-12T18:50:32.058Z,3.17
2019-02-12T18:55:37.474Z,3.50
2019-02-12T19:00:42.973Z,3.20
2019-02-12T19:05:50.477Z,3.10
2019-02-12T19:10:55.954Z,3.40
2019-02-12T19:16:02.520Z,3.27
2019-02-12T19:21:07.929Z,2.90
2019-02-12T19:26:13.348Z,3.03
2019-02-12T19:31:18.568Z,3.17
2019-02-12T19:36:23.997Z,3.00
2019-02-12T19:41:30.944Z,3.77
2019-02-12T19:46:36.391Z,3.40
2019-02-12T19:51:41.782Z,3.40
2019-02-12T19:56:47.206Z,3.63
2019-02-12T20:01:52.588Z,3.07
2019-02-12T20:06:58.329Z,3.30
2019-02-12T20:12:04.091Z,3.10
2019-02-12T20:17:09.476Z,2.73
2019-02-12T20:22:14.898Z,3.30
2019-02-12T20:27:20.292Z,2.87
2019-02-12T20:32:26.372Z,2.93
2019-02-12T20:37:31.787Z,3.20
2019-02-12T20:42:37.179Z,3.10
2019-02-12T20:47:42.576Z,3.00
2019-02-12T20:52:47.972Z,3.00
2019-02-12T20:57:54.544Z,3.03
2019-02-12T21:02:59.949Z,3.17
2019-02-12T21:08:05.363Z,3.17
2019-02-12T21:13:10.825Z,3.23
2019-02-12T21:18:16.234Z,2.90
2019-02-12T21:23:21.791Z,2.77
2019-02-12T21:28:27.199Z,2.87
2019-02-12T21:33:32.616Z,2.90
2019-02-12T21:38:38.003Z,2.80
2019-02-12T21:43:44.974Z,2.90
2019-02-12T21:48:50.379Z,2.80
2019-02-12T21:53:55.769Z,2.53
2019-02-12T21:59:01.213Z,2.60
2019-02-12T22:04:06.625Z,3.13
2019-02-12T22:09:11.989Z,3.00
2019-02-12T22:14:17.987Z,3.03
2019-02-12T22:19:25.018Z,3.30
2019-02-12T22:24:30.414Z,2.90
2019-02-12T22:29:35.808Z,3.10
2019-02-12T22:34:41.193Z,3.03
2019-02-12T22:39:46.573Z,2.87
2019-02-12T22:44:51.960Z,3.13
2019-02-12T22:49:57.344Z,2.93
2019-02-12T22:55:02.911Z,2.73
2019-02-12T23:00:47.110Z,3.33
2019-02-12T23:05:53.176Z,3.10
2019-02-12T23:10:58.577Z,3.10
2019-02-12T23:16:04.146Z,2.77
2019-02-12T23:21:10.611Z,2.93
2019-02-12T23:26:16.009Z,2.87
2019-02-12T23:31:21.689Z,2.97
2019-02-12T23:36:28.048Z,3.07
2019-02-12T23:41:33.428Z,2.83
2019-02-12T23:46:38.823Z,3.40
2019-02-12T23:51:44.212Z,2.70
2019-02-12T23:56:49.623Z,3.00
